This is the latest recevied weather packets stored in our database for station/object KE4ODN. If no packets are shown the sender has not sent any weather packets the latest 10 day(s).
| Time | Temp. | Humidity | Pressure | Rain* | Wind** | Luminosity | Snow |
|---|---|---|---|---|---|---|---|
| 1777909203 | 22.22° C | 56% | 1017 hPa | 0 mm | - | 710 W/m² | - |
| 1777908723 | 22.22° C | 58% | 1017 hPa | 0 mm | - | 628 W/m² | - |
| 1777908483 | 21.67° C | 57% | 1017.1 hPa | 0 mm | - | 636 W/m² | - |
| 1777906803 | 20° C | 66% | 1017.1 hPa | 0 mm | - | 596 W/m² | - |
| 1777906344 | 18.89° C | 68% | 1017 hPa | 0 mm | - | 596 W/m² | - |
| 1777904643 | 16.67° C | 77% | 1017.3 hPa | 0 mm | - | 130 W/m² | - |
| 1777904403 | 16.11° C | 77% | 1017.3 hPa | 0 mm | - | 218 W/m² | - |
| 1777904163 | 16.11° C | 78% | 1017.3 hPa | 0 mm | - | 58 W/m² | - |
| 1777900083 | 11.11° C | 92% | 1017.7 hPa | 0 mm | - | 39 W/m² | - |
| 1777898163 | 8.89° C | 93% | 1017.6 hPa | 0 mm | - | 26 W/m² | - |
| 1777897203 | 8.33° C | 94% | 1017.5 hPa | 0 mm | - | 19 W/m² | - |
| 1777895523 | 7.22° C | 93% | 1017.3 hPa | 0 mm | - | 14 W/m² | - |
| 1777894563 | 6.67° C | 93% | 1017.2 hPa | 0 mm | - | 26 W/m² | - |
| 1777894323 | 6.67° C | 93% | 1017.1 hPa | 0 mm | - | 21 W/m² | - |
| 1777893603 | 6.67° C | 93% | 1017.1 hPa | 0 mm | - | 11 W/m² | - |
| 1777893363 | 6.67° C | 93% | 1017.1 hPa | 0 mm | - | 5 W/m² | - |
| 1777892883 | 6.67° C | 93% | 1017.1 hPa | 0 mm | - | 0 W/m² | - |
| 1777892664 | 6.67° C | 93% | 1017.1 hPa | 0 mm | - | 0 W/m² | - |
| 1777889523 | 6.67° C | 93% | 1017 hPa | 0 mm | - | 0 W/m² | - |
| 1777886664 | 7.22° C | 93% | 1016.7 hPa | 0 mm | - | 0 W/m² | - |
| 1777885923 | 7.22° C | 93% | 1016.6 hPa | 0 mm | - | 0 W/m² | - |
| 1777884483 | 7.78° C | 93% | 1016.6 hPa | 0 mm | - | 0 W/m² | - |
| 1777883763 | 7.22° C | 93% | 1016.8 hPa | 0 mm | - | 0 W/m² | - |
| 1777883523 | 7.78° C | 93% | 1016.7 hPa | 0 mm | - | 0 W/m² | - |
| 1777882824 | 7.78° C | 93% | 1016.8 hPa | 0 mm | - | 0 W/m² | - |
* Rain latest hour (hover to see other rain measurements)
** Current wind speed in m/s (hover to see current wind gust speed)